Time;durP1;ratioP1;P1;durP2;ratioP2;P2;SDS_P1;SDS_P2;PMS_P1;PMS_P2;Temp;Humidity;BMP_temperature;BMP_pressure;BME280_temperature;BME280_humidity;BME280_pressure;Samples;Min_cycle;Max_cycle;Signal;HPM_P1;HPM_P2
2021/07/31 00:01:07;;;;;;;4.03;3.65;;;;;;;30.87;39.20;98923.91;1751717;81;20966;-52
2021/07/31 00:03:35;;;;;;;5.83;3.98;;;;;;;30.85;39.21;98925.47;1732429;81;21065;-52
2021/07/31 00:06:02;;;;;;;4.95;3.98;;;;;;;30.85;39.22;98930.89;1757081;80;21598;-50
2021/07/31 00:08:29;;;;;;;4.67;3.65;;;;;;;30.84;39.25;98929.73;1758982;81;21299;-51
2021/07/31 00:10:57;;;;;;;4.40;3.80;;;;;;;30.83;39.25;98932.12;1759055;81;20990;-51
2021/07/31 00:13:25;;;;;;;4.05;3.75;;;;;;;30.83;39.31;98933.48;1650651;84;21058;-51
2021/07/31 00:15:52;;;;;;;4.05;3.62;;;;;;;30.81;39.31;98929.59;1674433;85;21589;-51
2021/07/31 00:18:18;;;;;;;4.90;3.65;;;;;;;30.80;39.32;98929.30;1681359;84;21641;-51
2021/07/31 00:20:45;;;;;;;3.60;3.30;;;;;;;30.79;39.35;98929.49;1702613;84;21024;-52
2021/07/31 00:23:12;;;;;;;3.70;3.35;;;;;;;30.79;39.36;98934.92;1702746;84;21146;-50
2021/07/31 00:25:39;;;;;;;5.25;3.60;;;;;;;30.76;39.38;98928.00;1702612;84;21015;-51
2021/07/31 00:28:07;;;;;;;3.30;3.02;;;;;;;30.75;39.42;98928.52;1718333;82;21024;-53
2021/07/31 00:30:35;;;;;;;5.22;3.40;;;;;;;30.76;39.42;98929.36;1708740;82;21732;-51
2021/07/31 00:33:03;;;;;;;4.28;3.85;;;;;;;30.74;39.43;98930.08;1729477;82;21040;-47
2021/07/31 00:35:31;;;;;;;3.80;3.50;;;;;;;30.73;39.45;98930.61;1750088;82;21188;-52
2021/07/31 00:37:58;;;;;;;3.85;3.55;;;;;;;30.73;39.48;98928.39;1730366;82;21091;-51
2021/07/31 00:40:24;;;;;;;3.90;3.60;;;;;;;30.72;39.47;98932.16;1750059;82;21047;-53
2021/07/31 00:42:51;;;;;;;4.30;3.67;;;;;;;30.70;39.49;98931.00;1723665;82;21121;-52
2021/07/31 00:45:17;;;;;;;3.80;3.50;;;;;;;30.70;39.52;98926.92;1733901;82;21114;-53
2021/07/31 00:47:44;;;;;;;3.98;3.60;;;;;;;30.69;39.53;98925.23;1698889;82;21171;-51
2021/07/31 00:50:11;;;;;;;4.28;3.70;;;;;;;30.67;39.56;98927.31;1746347;82;21083;-52
2021/07/31 00:52:38;;;;;;;4.12;3.80;;;;;;;30.66;39.57;98926.98;1723058;82;21012;-52
2021/07/31 00:55:07;;;;;;;3.85;3.55;;;;;;;30.65;39.57;98926.68;1746574;82;22022;-52
2021/07/31 00:57:35;;;;;;;3.85;3.50;;;;;;;30.65;39.61;98927.17;1723459;82;21664;-53
2021/07/31 01:00:17;;;;;;;3.35;3.05;;;;;;;30.64;39.62;98926.34;1745977;82;21559;-50
2021/07/31 01:02:44;;;;;;;3.33;3.02;;;;;;;30.62;39.64;98923.00;1723239;82;21051;-51
2021/07/31 01:05:11;;;;;;;3.60;3.30;;;;;;;30.62;39.68;98923.00;1736503;82;21074;-53
2021/07/31 01:07:38;;;;;;;3.77;3.42;;;;;;;30.61;39.68;98918.59;1696229;83;21588;-52
2021/07/31 01:10:05;;;;;;;3.42;3.12;;;;;;;30.60;39.71;98918.78;1695741;83;21011;-52
2021/07/31 01:12:34;;;;;;;3.37;3.12;;;;;;;30.59;39.73;98925.27;1696375;83;21010;-50
2021/07/31 01:15:04;;;;;;;4.70;3.62;;;;;;;30.58;39.75;98920.86;1720475;83;21100;-50
2021/07/31 01:17:31;;;;;;;3.50;3.20;;;;;;;30.57;39.78;98925.47;1720824;83;21069;-52
2021/07/31 01:19:58;;;;;;;3.60;3.30;;;;;;;30.56;39.79;98919.70;1720390;83;21567;-49
2021/07/31 01:22:25;;;;;;;3.75;3.35;;;;;;;30.56;39.82;98921.06;1720564;83;21002;-51
2021/07/31 01:24:56;;;;;;;3.50;3.20;;;;;;;30.55;39.81;98924.83;1695292;83;21168;-48
2021/07/31 01:27:23;;;;;;;3.17;2.83;;;;;;;30.53;39.83;98922.31;1696215;83;21017;-51
2021/07/31 01:29:50;;;;;;;3.60;3.30;;;;;;;30.53;39.86;98925.52;1695729;83;21143;-50
2021/07/31 01:32:17;;;;;;;3.37;3.08;;;;;;;30.51;39.86;98918.95;1720305;83;21976;-51
2021/07/31 01:34:43;;;;;;;3.25;2.95;;;;;;;30.51;39.89;98912.67;1695980;83;21058;-49
2021/07/31 01:37:10;;;;;;;3.92;3.30;;;;;;;30.50;39.89;98919.98;1720513;83;21149;-52
2021/07/31 01:39:37;;;;;;;3.33;3.02;;;;;;;30.49;39.93;98916.10;1673046;83;20964;-51
2021/07/31 01:42:07;;;;;;;3.22;2.90;;;;;;;30.48;39.95;98919.84;1695933;83;21085;-52
2021/07/31 01:44:35;;;;;;;3.22;2.98;;;;;;;30.48;39.95;98915.77;1696925;82;21098;-49
2021/07/31 01:47:03;;;;;;;4.25;3.22;;;;;;;30.46;39.96;98913.78;1725633;83;21062;-49
2021/07/31 01:49:31;;;;;;;4.08;3.00;;;;;;;30.46;39.99;98920.56;1728621;82;21123;-52
2021/07/31 01:52:00;;;;;;;6.17;3.00;;;;;;;30.45;40.01;98913.48;1738027;82;21000;-49
2021/07/31 01:54:27;;;;;;;3.87;3.10;;;;;;;30.45;40.03;98920.27;1728381;82;21030;-52
2021/07/31 01:56:54;;;;;;;3.15;2.85;;;;;;;30.43;40.03;98920.95;1728201;83;21585;-49
2021/07/31 01:59:22;;;;;;;4.80;3.40;;;;;;;30.42;40.04;98920.66;1728393;82;20996;-51
2021/07/31 02:01:49;;;;;;;4.42;3.55;;;;;;;30.41;40.08;98923.03;1738365;82;21018;-51
2021/07/31 02:04:17;;;;;;;3.40;3.10;;;;;;;30.39;40.09;98921.86;1728571;81;21055;-52
2021/07/31 02:07:01;;;;;;;3.45;3.15;;;;;;;30.38;40.11;98921.03;1660259;86;21563;-52
2021/07/31 02:09:30;;;;;;;4.25;3.22;;;;;;;30.37;40.12;98922.06;1722309;82;20995;-50
2021/07/31 02:11:57;;;;;;;2.92;2.72;;;;;;;30.36;40.12;98919.05;1750413;82;21551;-49
2021/07/31 02:14:25;;;;;;;3.20;3.00;;;;;;;30.36;40.16;98933.97;1701369;81;22312;-52
2021/07/31 02:16:54;;;;;;;3.52;3.25;;;;;;;30.34;40.15;98929.20;1750262;82;21029;-51
2021/07/31 02:19:21;;;;;;;3.40;3.10;;;;;;;30.34;40.18;98930.55;1750409;82;21021;-52
2021/07/31 02:21:49;;;;;;;3.52;3.22;;;;;;;30.34;40.21;98932.44;1749304;82;21038;-50
2021/07/31 02:24:22;;;;;;;3.70;3.40;;;;;;;30.32;40.21;98931.80;1724921;82;21108;-50
2021/07/31 02:27:07;;;;;;;2.80;2.65;;;;;;;30.31;40.21;98932.33;1748910;82;21534;-52
2021/07/31 02:29:38;;;;;;;3.45;3.25;;;;;;;30.31;40.24;98929.61;1750376;82;21045;-50
2021/07/31 02:32:06;;;;;;;3.35;3.15;;;;;;;30.30;40.25;98933.87;1750452;82;21010;-51
2021/07/31 02:34:32;;;;;;;3.33;3.12;;;;;;;30.30;40.27;98933.87;1729129;81;20969;-51
2021/07/31 02:37:01;;;;;;;3.08;2.83;;;;;;;30.30;40.25;98942.02;1720394;83;20970;-50
2021/07/31 02:39:29;;;;;;;2.92;2.72;;;;;;;30.31;40.26;98942.32;1695009;83;22139;-52
2021/07/31 02:41:56;;;;;;;3.00;2.80;;;;;;;30.31;40.26;98940.47;1720447;83;21049;-51
2021/07/31 02:44:24;;;;;;;3.35;3.05;;;;;;;30.33;40.24;98943.82;1720630;83;21072;-49
2021/07/31 02:46:52;;;;;;;3.20;3.00;;;;;;;30.36;40.20;98942.61;1720440;83;21515;-50
2021/07/31 02:49:19;;;;;;;3.45;2.58;;;;;;;30.37;40.15;98941.06;1695858;83;21005;-50
2021/07/31 02:51:48;;;;;;;3.05;2.75;;;;;;;30.42;40.11;98936.94;1696060;83;21180;-52
2021/07/31 02:54:25;;;;;;;3.15;2.95;;;;;;;30.48;40.00;98933.41;1695023;83;21072;-51
2021/07/31 02:56:51;;;;;;;2.98;2.77;;;;;;;30.56;39.88;98941.42;1720474;83;21548;-52
2021/07/31 02:59:21;;;;;;;3.27;2.90;;;;;;;30.66;39.63;98940.56;1720428;83;21013;-52
2021/07/31 03:01:47;;;;;;;3.42;3.12;;;;;;;30.78;39.48;98938.14;1720860;83;21627;-53
2021/07/31 03:04:17;;;;;;;3.45;2.95;;;;;;;30.92;39.21;98939.92;1695995;83;21220;-52
2021/07/31 03:06:45;;;;;;;3.65;3.35;;;;;;;31.10;38.91;98938.08;1724645;82;21638;-50
2021/07/31 03:09:13;;;;;;;2.77;2.55;;;;;;;31.29;38.60;98942.47;1748321;82;21013;-51
2021/07/31 03:11:40;;;;;;;3.35;3.08;;;;;;;31.48;38.25;98949.86;1749277;81;21481;-52
2021/07/31 03:14:07;;;;;;;2.90;2.70;;;;;;;31.67;37.89;98952.89;1707913;82;21091;-50
2021/07/31 03:16:36;;;;;;;3.02;2.83;;;;;;;31.88;37.55;98955.17;1750621;82;21557;-50
2021/07/31 03:19:04;;;;;;;3.27;3.08;;;;;;;32.08;37.17;98955.23;1734940;81;21013;-50
2021/07/31 03:21:32;;;;;;;2.80;2.60;;;;;;;32.27;36.81;98961.23;1750604;82;21081;-53
2021/07/31 03:24:00;;;;;;;2.80;2.60;;;;;;;32.49;36.42;98958.33;1732691;81;21519;-52
2021/07/31 03:26:27;;;;;;;2.70;2.50;;;;;;;32.73;36.00;98956.87;1725424;81;21093;-50
2021/07/31 03:28:55;;;;;;;3.27;2.70;;;;;;;32.99;35.56;98955.19;1735259;82;22110;-52
2021/07/31 03:31:22;;;;;;;2.92;2.72;;;;;;;33.23;35.11;98957.23;1725038;81;21302;-52
2021/07/31 03:33:50;;;;;;;3.98;2.60;;;;;;;33.48;34.67;98956.54;1722105;82;21061;-53
2021/07/31 03:36:17;;;;;;;2.80;2.60;;;;;;;33.73;34.26;98961.30;1746701;82;20988;-51
2021/07/31 03:38:45;;;;;;;2.50;2.35;;;;;;;33.97;33.82;98965.98;1712116;82;21018;-52
2021/07/31 03:41:12;;;;;;;2.90;2.70;;;;;;;34.21;33.42;98964.41;1723277;82;22239;-52
2021/07/31 03:43:40;;;;;;;2.83;2.62;;;;;;;34.46;33.01;98961.38;1748844;82;21059;-52
2021/07/31 03:46:07;;;;;;;2.52;2.33;;;;;;;34.70;32.61;98969.27;1728681;82;21501;-53
2021/07/31 03:48:34;;;;;;;2.62;2.42;;;;;;;34.91;32.22;98968.06;1728643;82;21015;-53
2021/07/31 03:51:01;;;;;;;3.08;2.87;;;;;;;35.11;31.87;98959.66;1728603;82;21051;-52
2021/07/31 03:53:32;;;;;;;2.70;2.50;;;;;;;35.32;31.51;98958.39;1749835;81;21159;-51
2021/07/31 03:55:59;;;;;;;2.90;2.65;;;;;;;35.52;31.18;98956.28;1749675;82;21640;-54
2021/07/31 03:58:27;;;;;;;2.52;2.27;;;;;;;35.74;30.87;98967.29;1728246;82;21091;-51
2021/07/31 04:00:53;;;;;;;2.47;2.37;;;;;;;35.93;30.58;98966.70;1704234;82;21043;-52
2021/07/31 04:03:20;;;;;;;2.58;2.37;;;;;;;36.11;30.27;98967.20;1728521;82;21461;-52
2021/07/31 04:05:49;;;;;;;2.52;2.37;;;;;;;36.26;29.98;98960.27;1734681;81;21162;-53
2021/07/31 04:08:34;;;;;;;2.35;2.25;;;;;;;36.43;29.74;98963.67;1726147;83;20978;-52
2021/07/31 04:11:05;;;;;;;2.60;2.50;;;;;;;36.61;29.44;98966.86;1722787;81;21622;-51
2021/07/31 04:13:46;;;;;;;2.50;2.40;;;;;;;36.76;29.20;98968.62;1695874;81;21008;-51
2021/07/31 04:16:15;;;;;;;2.75;2.45;;;;;;;36.91;28.97;98968.16;1751388;81;21032;-52
2021/07/31 04:18:44;;;;;;;2.58;2.33;;;;;;;37.07;28.75;98968.50;1751582;81;21598;-50
2021/07/31 04:21:11;;;;;;;2.22;2.10;;;;;;;37.19;28.52;98965.27;1751390;81;21044;-51
2021/07/31 04:23:39;;;;;;;2.70;2.50;;;;;;;37.32;28.35;98971.00;1751601;81;21006;-53
2021/07/31 04:26:15;;;;;;;2.62;2.42;;;;;;;37.42;28.17;98970.40;1751076;81;21052;-52
2021/07/31 04:28:43;;;;;;;2.85;2.30;;;;;;;37.51;28.03;98975.27;1730411;81;21036;-51
2021/07/31 04:31:14;;;;;;;2.22;2.02;;;;;;;37.62;27.94;98972.73;1751597;81;21138;-52
2021/07/31 04:33:41;;;;;;;2.70;2.50;;;;;;;37.68;27.83;98965.77;1751154;81;21025;-52
2021/07/31 04:36:08;;;;;;;3.85;2.12;;;;;;;37.75;27.78;98961.50;1749950;82;21070;-53
2021/07/31 04:38:34;;;;;;;2.27;2.17;;;;;;;37.79;27.72;98960.47;1728417;82;21096;-54
2021/07/31 04:41:03;;;;;;;3.80;2.50;;;;;;;37.81;27.67;98959.67;1728358;82;21042;-52
2021/07/31 04:43:31;;;;;;;2.77;2.50;;;;;;;37.83;27.69;98960.26;1747586;82;21141;-54
2021/07/31 04:45:58;;;;;;;2.90;2.70;;;;;;;37.77;27.74;98958.52;1723269;82;21059;-51
2021/07/31 04:48:26;;;;;;;2.40;2.20;;;;;;;37.66;27.82;98960.20;1723664;82;21133;-56
2021/07/31 04:51:01;;;;;;;2.87;2.35;;;;;;;37.48;28.03;98955.72;1746794;82;21030;-53
2021/07/31 04:53:30;;;;;;;2.70;2.50;;;;;;;37.26;28.28;98961.02;1746795;82;21003;-54
2021/07/31 04:55:57;;;;;;;4.25;2.70;;;;;;;36.99;28.63;98964.23;1746525;82;21155;-46
2021/07/31 04:58:24;;;;;;;4.45;2.90;;;;;;;36.74;28.96;98965.84;1746788;82;21004;-54
2021/07/31 05:00:51;;;;;;;2.72;2.47;;;;;;;36.50;29.27;98966.30;1746841;82;21134;-51
2021/07/31 05:03:18;;;;;;;4.60;3.35;;;;;;;36.26;29.59;98967.11;1746776;82;21051;-48
2021/07/31 05:05:45;;;;;;;3.67;3.08;;;;;;;36.05;30.22;98968.97;1724601;82;21037;-50
2021/07/31 05:08:13;;;;;;;4.00;2.75;;;;;;;35.84;30.56;98971.16;1750882;81;21117;-50
2021/07/31 05:10:46;;;;;;;6.10;3.70;;;;;;;35.65;30.90;98963.47;1750821;82;20964;-51
2021/07/31 05:13:13;;;;;;;4.67;3.30;;;;;;;35.48;31.21;98971.47;1748363;82;21225;-52
2021/07/31 05:15:43;;;;;;;5.28;3.47;;;;;;;35.33;31.47;98976.48;1725071;82;21065;-52
2021/07/31 05:18:10;;;;;;;7.10;4.17;;;;;;;35.18;31.64;98976.83;1748719;82;21092;-49
2021/07/31 05:20:42;;;;;;;7.40;3.92;;;;;;;35.05;31.80;98980.52;1748479;82;21117;-53
2021/07/31 05:23:10;;;;;;;6.37;3.52;;;;;;;34.94;31.95;98985.39;1724817;82;21048;-51
2021/07/31 05:25:37;;;;;;;4.72;3.70;;;;;;;34.83;32.04;98986.11;1748638;82;21567;-52
2021/07/31 05:28:03;;;;;;;5.28;3.72;;;;;;;34.72;32.13;98987.16;1725002;82;21017;-48
2021/07/31 05:30:31;;;;;;;4.53;3.40;;;;;;;34.63;32.23;98989.81;1748545;82;21049;-52
2021/07/31 05:32:57;;;;;;;4.40;3.30;;;;;;;34.54;32.37;98992.53;1748342;82;21186;-49
2021/07/31 05:35:25;;;;;;;5.60;3.98;;;;;;;34.48;32.43;98990.67;1723426;82;21035;-50
2021/07/31 05:37:51;;;;;;;5.22;3.40;;;;;;;34.40;32.53;98991.26;1723686;82;21116;-53
2021/07/31 05:40:18;;;;;;;4.20;3.55;;;;;;;34.34;32.62;98988.57;1746792;82;21106;-52
2021/07/31 05:42:44;;;;;;;8.68;3.47;;;;;;;34.27;32.72;98996.81;1716153;83;21582;-52
2021/07/31 05:45:12;;;;;;;8.10;3.50;;;;;;;34.22;32.77;98998.00;1702877;83;20951;-53
2021/07/31 05:47:39;;;;;;;4.12;3.70;;;;;;;34.16;32.82;99004.30;1690456;84;21521;-51
2021/07/31 05:50:10;;;;;;;4.47;3.72;;;;;;;34.10;32.88;99001.09;1702997;84;21569;-52
2021/07/31 05:52:37;;;;;;;6.12;3.98;;;;;;;34.04;32.92;99009.11;1690627;84;21888;-54
2021/07/31 05:55:06;;;;;;;6.33;3.87;;;;;;;34.00;32.99;99008.39;1702971;84;21079;-51
2021/07/31 05:57:32;;;;;;;7.33;3.25;;;;;;;33.95;33.01;99006.30;1690408;84;21871;-52
2021/07/31 05:59:59;;;;;;;8.00;3.85;;;;;;;33.92;33.08;98999.09;1690523;84;21308;-52
2021/07/31 06:02:26;;;;;;;6.05;3.65;;;;;;;33.87;33.09;98998.36;1702930;84;21050;-53
2021/07/31 06:04:52;;;;;;;4.72;3.50;;;;;;;33.83;33.15;99003.96;1693523;83;21056;-53
2021/07/31 06:07:19;;;;;;;6.20;3.75;;;;;;;33.80;33.19;99004.39;1718688;83;21083;-53
2021/07/31 06:09:50;;;;;;;6.92;3.75;;;;;;;33.76;33.25;98999.04;1695638;83;21265;-52
2021/07/31 06:12:17;;;;;;;6.50;4.20;;;;;;;33.73;33.30;99003.05;1690800;84;21096;-52
2021/07/31 06:14:43;;;;;;;5.47;3.87;;;;;;;33.71;33.37;99004.30;1654628;85;21075;-52
2021/07/31 06:17:10;;;;;;;6.35;3.50;;;;;;;33.67;33.39;99002.51;1689574;84;21059;-53
2021/07/31 06:19:36;;;;;;;6.22;3.45;;;;;;;33.65;33.42;99006.81;1696550;84;21090;-52
2021/07/31 06:22:04;;;;;;;6.03;3.80;;;;;;;33.63;33.48;99013.55;1699575;84;21066;-51
2021/07/31 06:24:31;;;;;;;4.90;3.92;;;;;;;33.60;33.52;99022.99;1710158;83;21491;-50
2021/07/31 06:26:58;;;;;;;7.80;4.00;;;;;;;33.59;33.54;99013.16;1700259;83;21462;-52
2021/07/31 06:29:24;;;;;;;5.08;3.85;;;;;;;33.57;33.59;99009.78;1686283;84;21556;-52
2021/07/31 06:31:51;;;;;;;4.05;3.60;;;;;;;33.55;33.64;99009.16;1686486;84;22216;-53
2021/07/31 06:34:19;;;;;;;4.00;3.60;;;;;;;33.53;33.69;99013.17;1684373;84;21082;-53
2021/07/31 06:36:47;;;;;;;4.35;3.95;;;;;;;33.51;33.74;99013.39;1702711;84;21572;-50
2021/07/31 06:39:14;;;;;;;4.72;3.90;;;;;;;33.49;33.77;99014.14;1702848;84;21474;-53
2021/07/31 06:41:40;;;;;;;4.78;3.52;;;;;;;33.47;33.78;99010.26;1681782;84;21002;-52
2021/07/31 06:44:07;;;;;;;4.58;3.58;;;;;;;33.46;33.81;99010.47;1678597;84;21063;-52
2021/07/31 06:46:33;;;;;;;3.87;3.58;;;;;;;33.45;33.87;99003.33;1705570;84;21132;-54
2021/07/31 06:49:03;;;;;;;5.80;3.62;;;;;;;33.42;33.90;99012.79;1705273;83;21075;-52
2021/07/31 06:51:30;;;;;;;5.45;3.58;;;;;;;33.40;33.95;98999.05;1689207;84;20975;-49
2021/07/31 06:54:01;;;;;;;5.03;3.40;;;;;;;33.39;33.97;99001.45;1705419;83;21058;-45
2021/07/31 06:56:28;;;;;;;3.87;3.50;;;;;;;33.38;34.00;98999.79;1705825;84;21498;-54
2021/07/31 06:58:54;;;;;;;5.17;3.77;;;;;;;33.37;34.03;98998.10;1705411;84;21768;-55
2021/07/31 07:01:21;;;;;;;4.53;3.33;;;;;;;33.35;34.05;99001.04;1689141;84;21587;-53
2021/07/31 07:03:50;;;;;;;4.92;3.33;;;;;;;33.33;34.11;99006.70;1689323;84;21567;-51
2021/07/31 07:06:16;;;;;;;5.22;3.50;;;;;;;33.31;34.13;99006.62;1742755;81;21073;-54
2021/07/31 07:08:43;;;;;;;4.35;3.67;;;;;;;33.29;34.16;99001.38;1734995;82;21115;-54
2021/07/31 07:11:13;;;;;;;3.87;3.47;;;;;;;33.29;34.18;99002.74;1731760;82;21095;-52
2021/07/31 07:13:42;;;;;;;3.60;3.30;;;;;;;33.28;34.21;99008.41;1695843;83;21167;-54
2021/07/31 07:16:10;;;;;;;5.80;3.50;;;;;;;33.27;34.24;99002.63;1675858;85;21112;-51
2021/07/31 07:18:37;;;;;;;3.40;3.10;;;;;;;33.26;34.27;99008.62;1720509;83;21057;-54
2021/07/31 07:21:08;;;;;;;3.30;2.98;;;;;;;33.25;34.30;98998.75;1676133;85;21021;-53
2021/07/31 07:23:35;;;;;;;3.80;3.20;;;;;;;33.24;34.31;98998.45;1720458;83;21630;-53
2021/07/31 07:26:01;;;;;;;3.30;3.10;;;;;;;33.24;34.32;98998.45;1675693;85;21637;-54
2021/07/31 07:28:28;;;;;;;3.50;3.20;;;;;;;33.23;34.33;98999.50;1720465;83;21034;-50
2021/07/31 07:30:55;;;;;;;4.42;3.27;;;;;;;33.22;34.35;98991.02;1650467;85;21084;-53
2021/07/31 07:33:23;;;;;;;3.65;3.10;;;;;;;33.21;34.36;98988.51;1720720;83;21438;-53
2021/07/31 07:35:51;;;;;;;3.58;3.27;;;;;;;33.21;34.39;98994.79;1679298;84;21891;-49
2021/07/31 07:38:18;;;;;;;3.30;3.00;;;;;;;33.20;34.40;98991.73;1679213;84;21079;-53
2021/07/31 07:40:45;;;;;;;4.03;3.02;;;;;;;33.18;34.41;98988.39;1703101;83;21600;-54
2021/07/31 07:43:11;;;;;;;3.15;2.85;;;;;;;33.18;34.45;98990.30;1701947;83;21058;-53
2021/07/31 07:45:38;;;;;;;3.00;2.87;;;;;;;33.18;34.45;98996.58;1699711;84;21946;-53
2021/07/31 07:48:06;;;;;;;3.60;3.30;;;;;;;33.17;34.48;98995.42;1721666;83;21973;-50
2021/07/31 07:50:33;;;;;;;4.33;3.25;;;;;;;33.16;34.49;98993.23;1702859;83;21015;-55
2021/07/31 07:53:00;;;;;;;3.60;3.40;;;;;;;33.16;34.52;98994.59;1721815;83;21070;-54
2021/07/31 07:55:27;;;;;;;3.60;3.27;;;;;;;33.15;34.55;98998.36;1702993;83;21181;-54
2021/07/31 07:57:53;;;;;;;3.98;3.60;;;;;;;33.15;34.55;98995.63;1703392;82;21110;-52
2021/07/31 08:00:22;;;;;;;3.52;3.10;;;;;;;33.16;34.55;99002.77;1721713;82;21003;-51
2021/07/31 08:02:49;;;;;;;3.85;3.58;;;;;;;33.16;34.55;99002.77;1702743;83;21482;-52
2021/07/31 08:05:15;;;;;;;3.05;2.80;;;;;;;33.15;34.58;99001.08;1724757;83;21542;-53
2021/07/31 08:07:43;;;;;;;3.30;3.00;;;;;;;33.14;34.58;99001.59;1702013;83;21024;-50
2021/07/31 08:10:11;;;;;;;4.30;3.40;;;;;;;33.14;34.59;99003.48;1697480;83;21960;-54
2021/07/31 08:12:38;;;;;;;3.52;3.22;;;;;;;33.16;34.60;99002.77;1691499;83;21038;-52
2021/07/31 08:15:06;;;;;;;3.35;3.05;;;;;;;33.16;34.60;99001.94;1694164;84;21311;-53
2021/07/31 08:17:33;;;;;;;4.53;3.15;;;;;;;33.14;34.64;99000.22;1673872;84;21015;-48
2021/07/31 08:20:00;;;;;;;4.05;3.45;;;;;;;33.14;34.65;99004.84;1694259;84;21017;-50
2021/07/31 08:22:28;;;;;;;3.40;3.15;;;;;;;33.14;34.65;99002.12;1694413;84;21130;-53
2021/07/31 08:24:54;;;;;;;3.17;2.92;;;;;;;33.14;34.65;99004.31;1694465;84;21204;-53
2021/07/31 08:27:21;;;;;;;3.80;3.50;;;;;;;33.15;34.65;99003.80;1694240;84;21066;-50
2021/07/31 08:29:47;;;;;;;3.65;3.35;;;;;;;33.15;34.64;99002.45;1694180;84;21031;-51
2021/07/31 08:32:14;;;;;;;3.50;2.92;;;;;;;33.15;34.64;99003.80;1673956;84;21039;-53
2021/07/31 08:34:42;;;;;;;3.27;3.08;;;;;;;33.14;34.66;99007.03;1696476;83;21042;-50
2021/07/31 08:37:10;;;;;;;3.83;3.25;;;;;;;33.16;34.66;98999.22;1702385;83;22242;-53
2021/07/31 08:39:37;;;;;;;3.20;3.00;;;;;;;33.16;34.65;98999.22;1702529;83;21086;-53
2021/07/31 08:42:07;;;;;;;2.92;2.72;;;;;;;33.16;34.66;98997.31;1723219;83;21063;-51
2021/07/31 08:44:34;;;;;;;2.98;2.77;;;;;;;33.16;34.66;99002.77;1706093;83;21665;-52
2021/07/31 08:47:04;;;;;;;2.75;2.55;;;;;;;33.16;34.69;98997.85;1759059;81;21021;-53
2021/07/31 08:49:34;;;;;;;3.27;2.85;;;;;;;33.17;34.67;98999.51;1756961;81;22176;-51
2021/07/31 08:52:02;;;;;;;3.00;2.80;;;;;;;33.17;34.69;98996.28;1731434;81;21499;-53
2021/07/31 08:54:29;;;;;;;3.75;3.20;;;;;;;33.17;34.67;98992.19;1753374;81;20995;-54
2021/07/31 08:56:55;;;;;;;3.02;2.83;;;;;;;33.18;34.68;98995.20;1753339;81;21051;-53
2021/07/31 08:59:28;;;;;;;3.30;3.00;;;;;;;33.18;34.69;98993.84;1731836;81;21019;-54
2021/07/31 09:01:55;;;;;;;3.62;3.05;;;;;;;33.18;34.68;98987.03;1731664;81;21096;-55
2021/07/31 09:04:23;;;;;;;2.87;2.67;;;;;;;33.18;34.68;98980.22;1730607;81;21023;-50
2021/07/31 09:06:50;;;;;;;2.62;2.52;;;;;;;33.18;34.69;98987.03;1707970;83;21071;-53
2021/07/31 09:09:27;;;;;;;2.85;2.65;;;;;;;33.19;34.66;98982.41;1729021;83;20996;-54
2021/07/31 09:12:02;;;;;;;3.02;2.70;;;;;;;33.20;34.69;98982.73;1728854;81;20997;-52
2021/07/31 09:14:29;;;;;;;3.00;2.80;;;;;;;33.21;34.68;98987.14;1708390;83;21033;-53
2021/07/31 09:16:57;;;;;;;4.28;2.92;;;;;;;33.20;34.68;98983.56;1728500;82;21301;-49
2021/07/31 09:19:28;;;;;;;3.40;2.72;;;;;;;33.20;34.69;98984.92;1652889;85;21055;-54
2021/07/31 09:22:07;;;;;;;2.80;2.60;;;;;;;33.21;34.68;98983.88;1674321;85;21481;-51
2021/07/31 09:24:34;;;;;;;3.17;2.98;;;;;;;33.21;34.69;98985.78;1681638;84;21072;-51
2021/07/31 09:27:01;;;;;;;3.10;2.90;;;;;;;33.22;34.70;98980.13;1652393;85;21068;-51
2021/07/31 09:29:32;;;;;;;3.15;2.95;;;;;;;33.21;34.70;98971.62;1652522;85;21132;-52
2021/07/31 09:32:02;;;;;;;3.02;2.77;;;;;;;33.22;34.70;98978.76;1702591;84;21576;-53
2021/07/31 09:34:37;;;;;;;3.10;2.90;;;;;;;33.23;34.68;98972.23;1681788;84;21020;-52
2021/07/31 09:37:14;;;;;;;3.05;2.85;;;;;;;33.23;34.70;98976.33;1702788;84;21093;-53
2021/07/31 09:39:50;;;;;;;3.12;2.72;;;;;;;33.24;34.67;98978.01;1721583;83;21542;-53
2021/07/31 09:42:37;;;;;;;3.25;3.00;;;;;;;33.24;34.66;98973.92;1704070;84;21059;-52
2021/07/31 09:45:08;;;;;;;2.75;2.55;;;;;;;33.25;34.66;98968.77;1705386;83;21064;-53
2021/07/31 09:47:35;;;;;;;3.10;2.75;;;;;;;33.27;34.68;98972.13;1703316;83;21036;-50
2021/07/31 09:50:04;;;;;;;2.55;2.35;;;;;;;33.28;34.67;98968.88;1720619;83;21087;-54
2021/07/31 09:52:30;;;;;;;3.22;3.00;;;;;;;33.28;34.65;98956.61;1720704;83;22004;-53
2021/07/31 09:54:58;;;;;;;3.10;2.90;;;;;;;33.30;34.61;98962.17;1720396;83;21075;-53
2021/07/31 09:57:28;;;;;;;3.20;2.90;;;;;;;33.31;34.61;98958.91;1696610;83;21051;-54
2021/07/31 09:59:58;;;;;;;2.87;2.67;;;;;;;33.32;34.59;98951.88;1689377;83;21102;-51
2021/07/31 10:02:24;;;;;;;2.90;2.70;;;;;;;33.33;34.59;98964.98;1689223;83;21039;-53
2021/07/31 10:04:52;;;;;;;2.50;2.30;;;;;;;33.34;34.59;98961.20;1696520;81;21056;-50
2021/07/31 10:07:19;;;;;;;3.12;2.92;;;;;;;33.35;34.59;98958.77;1750510;82;21033;-53
2021/07/31 10:09:53;;;;;;;3.08;2.75;;;;;;;33.36;34.56;98955.01;1750869;81;21756;-54
2021/07/31 10:12:27;;;;;;;2.58;2.47;;;;;;;33.38;34.53;98949.34;1750281;82;21022;-53
2021/07/31 10:14:54;;;;;;;2.80;2.58;;;;;;;33.38;34.52;98951.53;1743928;82;21055;-54
2021/07/31 10:17:29;;;;;;;3.22;3.02;;;;;;;33.40;34.50;98944.50;1692665;82;21206;-52
2021/07/31 10:19:56;;;;;;;2.80;2.60;;;;;;;33.41;34.49;98939.38;1741740;82;21012;-53
2021/07/31 10:22:45;;;;;;;2.95;2.75;;;;;;;33.41;34.49;98943.47;1741891;82;20996;-53
2021/07/31 10:25:13;;;;;;;2.80;2.60;;;;;;;33.41;34.46;98943.47;1716935;82;20989;-52
2021/07/31 10:27:40;;;;;;;3.30;3.00;;;;;;;33.42;34.48;98941.03;1742149;82;20996;-52
2021/07/31 10:30:24;;;;;;;2.60;2.50;;;;;;;33.44;34.47;98938.91;1741812;82;21083;-54
2021/07/31 10:32:50;;;;;;;2.80;2.60;;;;;;;33.45;34.43;98946.05;1705681;82;21012;-50
2021/07/31 10:35:33;;;;;;;2.70;2.60;;;;;;;33.45;34.46;98944.69;1724604;82;21068;-52
2021/07/31 10:38:05;;;;;;;2.80;2.60;;;;;;;33.46;34.44;98942.29;1723197;82;21061;-51
2021/07/31 10:40:41;;;;;;;2.52;2.42;;;;;;;33.47;34.45;98938.48;1725105;82;21083;-53
2021/07/31 10:43:11;;;;;;;2.60;2.40;;;;;;;33.47;34.42;98939.85;1724826;82;21087;-50
2021/07/31 10:45:39;;;;;;;2.33;2.22;;;;;;;33.48;34.41;98939.64;1748355;82;21072;-52
2021/07/31 10:48:26;;;;;;;2.70;2.50;;;;;;;33.49;34.42;98944.59;1724717;82;21080;-53
2021/07/31 10:50:52;;;;;;;2.45;2.35;;;;;;;33.50;34.41;98943.52;1725294;82;21009;-54
2021/07/31 10:53:21;;;;;;;3.37;2.62;;;;;;;33.50;34.39;98945.70;1724784;82;21052;-55
2021/07/31 10:55:56;;;;;;;2.12;2.02;;;;;;;33.51;34.40;98937.02;1724839;82;21272;-53
2021/07/31 10:58:22;;;;;;;2.95;2.75;;;;;;;33.51;34.40;98934.30;1724967;82;20885;-52
2021/07/31 11:01:19;;;;;;;2.77;2.58;;;;;;;33.50;34.38;98933.44;1725055;82;21013;-52
2021/07/31 11:03:46;;;;;;;2.62;2.50;;;;;;;33.50;34.38;98935.34;1747967;82;21044;-54
2021/07/31 11:06:13;;;;;;;2.90;2.70;;;;;;;33.52;34.36;98930.49;1750004;81;21116;-53
2021/07/31 11:08:52;;;;;;;2.52;2.42;;;;;;;33.53;34.35;98929.45;1725388;82;21539;-51
2021/07/31 11:11:25;;;;;;;2.77;2.58;;;;;;;33.54;34.34;98927.05;1718113;81;21002;-51
2021/07/31 11:13:54;;;;;;;2.55;2.45;;;;;;;33.56;34.33;98925.44;1750533;82;25942;-47
2021/07/31 11:16:26;;;;;;;2.83;2.70;;;;;;;33.56;34.32;98920.84;1750514;82;21034;-53
2021/07/31 11:18:58;;;;;;;2.90;2.70;;;;;;;33.57;34.31;98921.67;1750421;82;21535;-53
2021/07/31 11:21:35;;;;;;;2.85;2.65;;;;;;;33.56;34.33;98916.75;1748816;81;22169;-54
2021/07/31 11:24:06;;;;;;;3.33;2.72;;;;;;;33.58;34.31;98915.17;1750223;81;38225;-53
2021/07/31 11:26:51;;;;;;;2.55;2.35;;;;;;;33.59;34.30;98910.87;1724978;82;21025;-53
2021/07/31 11:29:24;;;;;;;2.40;2.20;;;;;;;33.60;34.29;98906.23;1750289;82;21089;-52
2021/07/31 11:32:11;;;;;;;2.77;2.58;;;;;;;33.60;34.29;98905.70;1724860;82;21121;-54
2021/07/31 11:34:45;;;;;;;2.80;2.60;;;;;;;33.61;34.30;98907.92;1743875;82;21129;-53
2021/07/31 11:37:15;;;;;;;2.40;2.20;;;;;;;33.61;34.27;98909.28;1741799;82;21012;-52
2021/07/31 11:39:45;;;;;;;2.62;2.45;;;;;;;33.62;34.28;98906.31;1742002;82;21024;-54
2021/07/31 11:42:19;;;;;;;2.70;2.50;;;;;;;33.63;34.28;98902.55;1716512;82;21091;-53